Time;durP1;ratioP1;P1;durP2;ratioP2;P2;SDS_P1;SDS_P2;PMS_P1;PMS_P2;Temp;Humidity;BMP_temperature;BMP_pressure;BME280_temperature;BME280_humidity;BME280_pressure;Samples;Min_cycle;Max_cycle;Signal;HPM_P1;HPM_P2
2021/11/03 00:02:24;;;;;;;3.97;1.90;;;11.00;82.30;;;;;;5086043;28;20036;-69
2021/11/03 00:04:50;;;;;;;3.10;1.98;;;10.90;82.20;;;;;;5058348;28;20020;-69
2021/11/03 00:07:15;;;;;;;2.70;1.80;;;10.90;82.60;;;;;;5078414;28;20055;-69
2021/11/03 00:09:41;;;;;;;3.05;1.90;;;10.90;82.70;;;;;;5078472;28;20041;-69
2021/11/03 00:12:14;;;;;;;2.47;1.70;;;10.80;82.70;;;;;;5059627;28;20028;-69
2021/11/03 00:14:40;;;;;;;4.45;2.03;;;10.80;82.80;;;;;;5078189;28;20028;-70
2021/11/03 00:17:06;;;;;;;2.60;1.60;;;10.80;82.80;;;;;;5074277;28;20054;-69
2021/11/03 00:19:32;;;;;;;2.30;1.50;;;10.80;82.80;;;;;;5059362;28;20036;-69
2021/11/03 00:21:58;;;;;;;1.70;1.45;;;10.80;83.00;;;;;;5078471;28;20033;-69
2021/11/03 00:24:24;;;;;;;2.10;1.40;;;10.80;83.10;;;;;;5082874;28;20055;-69
2021/11/03 00:26:50;;;;;;;2.10;1.40;;;10.80;83.10;;;;;;5069559;28;20472;-69
2021/11/03 00:29:15;;;;;;;2.33;1.50;;;10.70;83.00;;;;;;5057154;28;20036;-69
2021/11/03 00:31:41;;;;;;;2.53;1.20;;;10.70;83.00;;;;;;5076156;28;20029;-69
2021/11/03 00:34:07;;;;;;;1.58;1.20;;;10.70;83.00;;;;;;5079588;28;20472;-69
2021/11/03 00:36:33;;;;;;;3.85;1.20;;;10.70;83.30;;;;;;5075785;28;20040;-69
2021/11/03 00:38:59;;;;;;;2.13;1.10;;;10.70;83.20;;;;;;5077353;28;20024;-68
2021/11/03 00:41:25;;;;;;;3.00;1.35;;;10.70;83.60;;;;;;5076418;28;20133;-68
2021/11/03 00:43:52;;;;;;;2.45;1.08;;;10.70;83.60;;;;;;5073943;28;20049;-70
2021/11/03 00:46:18;;;;;;;2.38;1.20;;;10.70;83.50;;;;;;5077807;28;20023;-69
2021/11/03 00:48:43;;;;;;;2.25;1.08;;;10.70;83.30;;;;;;5079865;28;20119;-70
2021/11/03 00:51:09;;;;;;;2.92;1.20;;;10.70;83.30;;;;;;5059866;28;20230;-68
2021/11/03 00:53:35;;;;;;;1.77;1.48;;;10.70;83.40;;;;;;5077203;28;20078;-69
2021/11/03 00:56:00;;;;;;;1.13;0.90;;;10.70;83.40;;;;;;5072712;28;20524;-69
2021/11/03 00:58:26;;;;;;;1.75;1.10;;;10.60;83.50;;;;;;5059483;28;20397;-70
2021/11/03 01:00:52;;;;;;;2.53;1.08;;;10.70;83.50;;;;;;5077581;28;20028;-70
2021/11/03 01:03:17;;;;;;;2.53;1.35;;;10.60;83.40;;;;;;5077145;28;20025;-69
2021/11/03 01:05:43;;;;;;;1.80;1.13;;;10.60;83.60;;;;;;5077331;28;20027;-70
2021/11/03 01:08:11;;;;;;;2.95;1.30;;;10.70;83.50;;;;;;5074092;28;20389;-70
2021/11/03 01:10:40;;;;;;;1.88;1.13;;;10.70;83.20;;;;;;5088870;28;20020;-70
2021/11/03 01:13:06;;;;;;;2.10;1.17;;;10.70;83.50;;;;;;5086914;28;20106;-70
2021/11/03 01:15:32;;;;;;;1.70;1.10;;;10.70;83.40;;;;;;5080256;28;20032;-70
2021/11/03 01:17:58;;;;;;;2.97;1.20;;;10.70;83.40;;;;;;5077386;28;20021;-70
2021/11/03 01:20:25;;;;;;;1.95;1.08;;;10.70;83.50;;;;;;5057904;28;20028;-70
2021/11/03 01:22:51;;;;;;;1.33;0.93;;;10.70;83.40;;;;;;5073057;28;20081;-69
2021/11/03 01:25:17;;;;;;;2.60;1.20;;;10.70;83.40;;;;;;5088146;28;20480;-69
2021/11/03 01:27:43;;;;;;;2.63;1.05;;;10.60;83.30;;;;;;5078866;28;20040;-69
2021/11/03 01:30:12;;;;;;;1.63;1.10;;;10.70;83.60;;;;;;5076901;28;20047;-70
2021/11/03 01:32:38;;;;;;;2.05;1.02;;;10.60;83.40;;;;;;5076646;28;20027;-70
2021/11/03 01:35:06;;;;;;;1.65;0.90;;;10.60;83.50;;;;;;5054697;28;20024;-70
2021/11/03 01:37:32;;;;;;;2.03;0.95;;;10.60;83.50;;;;;;5056955;28;20020;-70
2021/11/03 01:39:58;;;;;;;1.10;1.00;;;10.60;83.40;;;;;;5085414;28;20445;-70
2021/11/03 01:42:23;;;;;;;1.13;0.85;;;10.60;83.30;;;;;;5081467;28;20095;-70
2021/11/03 01:44:49;;;;;;;1.40;0.90;;;10.60;83.30;;;;;;5076730;28;20373;-69
2021/11/03 01:47:39;;;;;;;2.00;0.90;;;10.60;83.60;;;;;;5055463;28;20028;-70
2021/11/03 01:50:27;;;;;;;1.70;0.90;;;10.60;83.20;;;;;;5071533;28;20404;-69
2021/11/03 01:53:16;;;;;;;2.15;0.90;;;10.60;83.20;;;;;;5072707;28;20063;-70
2021/11/03 01:55:57;;;;;;;1.70;1.02;;;10.60;83.40;;;;;;5088317;28;20115;-70
2021/11/03 01:58:28;;;;;;;1.70;1.00;;;10.60;83.50;;;;;;5075333;28;20024;-70
2021/11/03 02:00:56;;;;;;;2.83;0.80;;;10.60;83.40;;;;;;5076718;28;20044;-69
2021/11/03 02:03:26;;;;;;;1.75;0.77;;;10.60;83.50;;;;;;5058877;28;20086;-70
2021/11/03 02:06:13;;;;;;;1.90;0.77;;;10.60;83.40;;;;;;5056959;28;20401;-70
2021/11/03 02:08:42;;;;;;;2.47;0.80;;;10.50;82.60;;;;;;5079796;28;20044;-70
2021/11/03 02:11:08;;;;;;;1.48;0.75;;;10.50;83.30;;;;;;5087949;28;20036;-70
2021/11/03 02:13:36;;;;;;;1.40;0.68;;;10.50;83.30;;;;;;5074441;28;20119;-70
2021/11/03 02:16:03;;;;;;;1.13;0.57;;;10.50;83.30;;;;;;5076398;28;20389;-69
2021/11/03 02:18:31;;;;;;;1.83;0.75;;;10.50;83.50;;;;;;5075443;28;20517;-70
2021/11/03 02:20:57;;;;;;;2.15;0.80;;;10.40;83.50;;;;;;5075876;28;20099;-70
2021/11/03 02:23:44;;;;;;;2.65;0.80;;;10.50;83.50;;;;;;5074297;28;20035;-70
2021/11/03 02:26:20;;;;;;;3.08;0.70;;;10.40;83.30;;;;;;5087751;28;20031;-69
2021/11/03 02:28:47;;;;;;;1.80;0.77;;;10.40;83.20;;;;;;5087238;28;20035;-70
2021/11/03 02:31:32;;;;;;;2.95;0.80;;;10.30;83.10;;;;;;5075837;28;20020;-70
2021/11/03 02:33:58;;;;;;;1.30;0.70;;;10.30;83.20;;;;;;5085099;28;20055;-69
2021/11/03 02:36:23;;;;;;;1.80;0.80;;;10.30;83.60;;;;;;5064472;28;20488;-69
2021/11/03 02:38:49;;;;;;;1.13;0.57;;;10.20;83.50;;;;;;5084848;28;20044;-69
2021/11/03 02:41:27;;;;;;;2.28;0.70;;;10.20;83.40;;;;;;5073164;28;20039;-69
2021/11/03 02:44:05;;;;;;;1.77;0.70;;;10.10;83.30;;;;;;5071884;28;20048;-70
2021/11/03 02:46:31;;;;;;;1.70;0.75;;;10.10;83.70;;;;;;5086928;28;20024;-70
2021/11/03 02:48:57;;;;;;;0.82;0.60;;;10.10;83.90;;;;;;5075839;28;20036;-70
2021/11/03 02:51:36;;;;;;;1.20;0.60;;;10.10;83.70;;;;;;5056670;28;20441;-70
2021/11/03 02:54:06;;;;;;;3.17;0.88;;;10.10;83.60;;;;;;5075548;28;20086;-70
2021/11/03 02:56:36;;;;;;;2.75;0.90;;;10.00;83.80;;;;;;5057284;28;20020;-70
2021/11/03 02:59:04;;;;;;;1.00;0.70;;;10.00;83.90;;;;;;5071947;28;20107;-69
2021/11/03 03:01:37;;;;;;;3.72;0.60;;;10.00;83.90;;;;;;5085648;28;20024;-70
2021/11/03 03:04:09;;;;;;;1.52;0.52;;;10.00;83.90;;;;;;5075554;28;20082;-70
2021/11/03 03:06:35;;;;;;;1.65;0.73;;;10.00;84.00;;;;;;5080817;28;20511;-70
2021/11/03 03:09:05;;;;;;;0.90;0.70;;;10.00;84.00;;;;;;5083469;28;20037;-70
2021/11/03 03:11:33;;;;;;;1.95;0.60;;;9.90;84.00;;;;;;5074444;28;20021;-69
2021/11/03 03:13:59;;;;;;;1.75;0.80;;;9.90;84.00;;;;;;5070439;28;20082;-70
2021/11/03 03:16:25;;;;;;;0.77;0.60;;;9.90;84.20;;;;;;5070858;28;20070;-70
2021/11/03 03:18:50;;;;;;;1.75;0.70;;;9.90;84.20;;;;;;5057200;28;20032;-70
2021/11/03 03:21:18;;;;;;;1.40;0.63;;;9.90;84.40;;;;;;5074830;28;20028;-70
2021/11/03 03:23:43;;;;;;;1.08;0.70;;;9.90;84.10;;;;;;5075329;28;20062;-70
2021/11/03 03:26:12;;;;;;;1.50;0.90;;;9.90;84.10;;;;;;5086651;28;20441;-70
2021/11/03 03:28:38;;;;;;;1.88;0.60;;;9.90;84.20;;;;;;5072998;28;20489;-70
2021/11/03 03:31:07;;;;;;;1.30;0.65;;;9.90;84.20;;;;;;5085418;28;20082;-69
2021/11/03 03:33:33;;;;;;;2.90;0.60;;;9.90;84.20;;;;;;5077396;28;20033;-70
2021/11/03 03:35:58;;;;;;;0.90;0.70;;;9.90;84.30;;;;;;5074721;28;20028;-70
2021/11/03 03:38:24;;;;;;;1.67;0.60;;;9.90;84.30;;;;;;5073061;28;20024;-70
2021/11/03 03:40:50;;;;;;;0.90;0.60;;;9.90;84.10;;;;;;5072500;28;20025;-70
2021/11/03 03:43:16;;;;;;;1.45;0.70;;;10.00;84.60;;;;;;5073868;28;20044;-70
2021/11/03 03:45:41;;;;;;;1.63;0.70;;;10.00;84.70;;;;;;5077743;28;20024;-69
2021/11/03 03:48:07;;;;;;;1.73;0.73;;;10.00;84.30;;;;;;5079165;28;20115;-70
2021/11/03 03:50:33;;;;;;;0.73;0.50;;;10.00;84.00;;;;;;5064311;28;20473;-69
2021/11/03 03:52:59;;;;;;;1.80;0.57;;;10.00;84.30;;;;;;5086495;28;20469;-70
2021/11/03 03:55:24;;;;;;;1.85;0.70;;;10.00;84.10;;;;;;5081252;28;20070;-70
2021/11/03 03:57:50;;;;;;;1.77;0.90;;;10.00;84.20;;;;;;5075505;28;20031;-70
2021/11/03 04:00:22;;;;;;;3.15;0.68;;;10.00;84.40;;;;;;5057064;28;20523;-70
2021/11/03 04:02:50;;;;;;;1.00;0.60;;;10.00;84.00;;;;;;5074244;28;20103;-70
2021/11/03 04:05:17;;;;;;;1.60;0.60;;;10.00;83.70;;;;;;5072461;28;20025;-70
2021/11/03 04:07:42;;;;;;;1.15;0.60;;;10.00;83.90;;;;;;5072549;28;20044;-70
2021/11/03 04:10:08;;;;;;;1.13;0.60;;;9.90;83.60;;;;;;5074649;28;20025;-69
2021/11/03 04:12:35;;;;;;;0.77;0.60;;;9.90;84.00;;;;;;5074508;28;20122;-70
2021/11/03 04:15:00;;;;;;;1.10;0.60;;;9.80;83.70;;;;;;5059657;28;20068;-69
2021/11/03 04:17:26;;;;;;;2.67;0.70;;;9.80;83.90;;;;;;5077295;28;20417;-70
2021/11/03 04:19:52;;;;;;;1.13;0.60;;;9.80;84.30;;;;;;5081554;28;20032;-70
2021/11/03 04:22:18;;;;;;;1.15;0.60;;;9.80;83.70;;;;;;5087896;28;20032;-70
2021/11/03 04:24:44;;;;;;;1.45;0.43;;;9.70;83.70;;;;;;5069817;28;20028;-70
2021/11/03 04:27:10;;;;;;;1.45;0.50;;;9.70;83.70;;;;;;5085544;28;20032;-70
2021/11/03 04:29:36;;;;;;;1.30;0.52;;;9.70;83.90;;;;;;5078652;28;20032;-70
2021/11/03 04:32:02;;;;;;;1.92;0.60;;;9.70;83.80;;;;;;5073774;28;20025;-70
2021/11/03 04:34:27;;;;;;;1.65;0.50;;;9.70;84.00;;;;;;5077717;28;20405;-70
2021/11/03 04:36:53;;;;;;;0.40;0.30;;;9.70;84.00;;;;;;5078440;28;20024;-70
2021/11/03 04:39:19;;;;;;;0.85;0.50;;;9.70;83.90;;;;;;5082451;28;20028;-70
2021/11/03 04:41:44;;;;;;;1.95;0.50;;;9.70;83.70;;;;;;5088474;28;20024;-70
2021/11/03 04:44:10;;;;;;;1.60;0.50;;;9.70;83.70;;;;;;5075079;28;20028;-69
2021/11/03 04:46:37;;;;;;;0.80;0.50;;;9.70;84.00;;;;;;5078164;28;20091;-70
2021/11/03 04:49:03;;;;;;;1.00;0.40;;;9.60;83.70;;;;;;5078679;28;20037;-69
2021/11/03 04:51:29;;;;;;;0.85;0.40;;;9.60;83.80;;;;;;5078459;28;20029;-70
2021/11/03 04:53:55;;;;;;;1.25;0.63;;;9.60;83.90;;;;;;5078183;28;20040;-70
2021/11/03 04:56:23;;;;;;;0.93;0.50;;;9.60;83.80;;;;;;5075689;28;20025;-69
2021/11/03 04:58:51;;;;;;;1.25;0.60;;;9.60;83.50;;;;;;5075328;28;20016;-70
2021/11/03 05:01:20;;;;;;;1.20;0.57;;;9.50;83.60;;;;;;5077515;28;20049;-69
2021/11/03 05:03:50;;;;;;;1.27;0.50;;;9.50;84.00;;;;;;5085262;28;20103;-69
2021/11/03 05:06:18;;;;;;;0.90;0.63;;;9.50;83.90;;;;;;5083347;28;20031;-70
2021/11/03 05:08:44;;;;;;;1.25;0.60;;;9.50;84.00;;;;;;5077871;28;20442;-69
2021/11/03 05:11:09;;;;;;;1.30;0.50;;;9.50;83.80;;;;;;5074805;28;20036;-69
2021/11/03 05:13:35;;;;;;;0.30;0.30;;;9.50;83.90;;;;;;5092590;28;20111;-70
2021/11/03 05:16:01;;;;;;;0.80;0.40;;;9.50;83.90;;;;;;5077876;28;20051;-70
2021/11/03 05:18:27;;;;;;;1.00;0.47;;;9.50;84.20;;;;;;5077537;28;20028;-70
2021/11/03 05:20:53;;;;;;;2.53;0.50;;;9.50;83.80;;;;;;5078141;28;20032;-70
2021/11/03 05:23:24;;;;;;;1.17;0.60;;;9.50;83.90;;;;;;5076033;28;20039;-70
2021/11/03 05:25:54;;;;;;;0.90;0.47;;;9.50;83.80;;;;;;5086159;28;20020;-71
2021/11/03 05:28:21;;;;;;;0.93;0.50;;;9.40;83.50;;;;;;5076848;28;20082;-70
2021/11/03 05:30:47;;;;;;;0.93;0.50;;;9.40;83.80;;;;;;5077521;28;20021;-70
2021/11/03 05:33:13;;;;;;;0.55;0.40;;;9.40;84.00;;;;;;5077507;28;20035;-70
2021/11/03 05:35:38;;;;;;;0.80;0.40;;;9.40;85.10;;;;;;5073943;28;20009;-69
2021/11/03 05:38:05;;;;;;;0.75;0.50;;;9.40;83.90;;;;;;5088598;28;20020;-69
2021/11/03 05:40:30;;;;;;;0.60;0.40;;;9.30;83.90;;;;;;5076372;28;20032;-70
2021/11/03 05:42:57;;;;;;;1.35;0.55;;;9.30;83.70;;;;;;5077177;28;20401;-69
2021/11/03 05:45:24;;;;;;;0.60;0.40;;;9.20;83.70;;;;;;5059046;28;20036;-71
2021/11/03 05:47:50;;;;;;;1.33;0.50;;;9.20;83.90;;;;;;5076959;28;20046;-69
2021/11/03 05:50:27;;;;;;;1.00;0.45;;;9.10;84.10;;;;;;5074319;28;20111;-70
2021/11/03 05:52:53;;;;;;;0.80;0.60;;;9.10;84.00;;;;;;5073662;28;20416;-70
2021/11/03 05:55:20;;;;;;;1.15;0.52;;;9.10;84.00;;;;;;5083953;28;20024;-70
2021/11/03 05:57:46;;;;;;;0.52;0.40;;;9.10;84.50;;;;;;5078282;28;20032;-70
2021/11/03 06:00:23;;;;;;;0.95;0.43;;;9.10;84.50;;;;;;5076501;28;20028;-69
2021/11/03 06:02:49;;;;;;;0.75;0.40;;;9.10;84.20;;;;;;5076666;28;20108;-69
2021/11/03 06:05:15;;;;;;;0.70;0.40;;;9.10;84.40;;;;;;5074018;28;20032;-70
2021/11/03 06:07:52;;;;;;;1.45;0.40;;;9.10;84.60;;;;;;5074459;28;20043;-70
2021/11/03 06:10:28;;;;;;;1.02;0.43;;;9.00;84.40;;;;;;5071322;28;20052;-70
2021/11/03 06:12:54;;;;;;;1.33;0.40;;;9.00;84.60;;;;;;5076610;28;20522;-70
2021/11/03 06:15:22;;;;;;;1.30;0.55;;;9.00;84.50;;;;;;5076748;28;20021;-70
2021/11/03 06:17:51;;;;;;;1.65;0.50;;;9.00;84.70;;;;;;5076749;28;20024;-71
2021/11/03 06:20:17;;;;;;;0.70;0.57;;;9.00;84.70;;;;;;5073216;28;20027;-70
2021/11/03 06:22:43;;;;;;;1.95;0.43;;;9.00;84.80;;;;;;5087788;28;20102;-70
2021/11/03 06:25:11;;;;;;;0.95;0.63;;;9.10;85.10;;;;;;5087790;28;20099;-70
2021/11/03 06:27:37;;;;;;;0.60;0.47;;;9.00;84.50;;;;;;5079095;28;20032;-70
2021/11/03 06:30:05;;;;;;;0.98;0.50;;;9.10;84.80;;;;;;5075836;28;20450;-70
2021/11/03 06:32:31;;;;;;;1.05;0.50;;;9.10;85.50;;;;;;5053761;28;20437;-70
2021/11/03 06:34:56;;;;;;;1.20;0.57;;;9.20;85.30;;;;;;5088568;28;20068;-69
2021/11/03 06:37:22;;;;;;;1.48;0.40;;;9.20;86.00;;;;;;5074836;28;20032;-69
2021/11/03 06:39:48;;;;;;;2.83;0.75;;;9.30;85.30;;;;;;5076591;28;20493;-70
2021/11/03 06:42:13;;;;;;;1.70;0.60;;;9.30;84.90;;;;;;5074924;28;20076;-70
2021/11/03 06:44:39;;;;;;;1.20;0.50;;;9.30;84.70;;;;;;5078009;28;20048;-69
2021/11/03 06:47:05;;;;;;;0.82;0.45;;;9.30;84.40;;;;;;5089437;28;20016;-69
2021/11/03 06:49:31;;;;;;;1.70;0.60;;;9.30;84.50;;;;;;5069981;28;20039;-69
2021/11/03 06:51:56;;;;;;;1.10;0.50;;;9.30;84.70;;;;;;5085151;28;20024;-69
2021/11/03 06:54:22;;;;;;;2.55;0.50;;;9.30;85.10;;;;;;5068872;28;20028;-70
2021/11/03 06:56:51;;;;;;;0.90;0.60;;;9.40;84.90;;;;;;5085282;28;20118;-70
2021/11/03 06:59:18;;;;;;;0.80;0.55;;;9.50;85.20;;;;;;5085193;28;20426;-70
2021/11/03 07:01:44;;;;;;;1.38;0.70;;;9.60;84.90;;;;;;5070234;28;20027;-69
2021/11/03 07:04:11;;;;;;;1.63;0.57;;;9.60;84.40;;;;;;5088621;28;20032;-69
2021/11/03 07:06:37;;;;;;;1.05;0.50;;;9.60;84.40;;;;;;5087117;28;20024;-69
2021/11/03 07:09:03;;;;;;;1.55;0.60;;;9.70;84.40;;;;;;5089389;28;20120;-69
2021/11/03 07:11:29;;;;;;;2.17;0.80;;;9.60;84.20;;;;;;5083731;28;20044;-69
2021/11/03 07:13:57;;;;;;;1.48;0.63;;;9.60;84.20;;;;;;5087479;28;20024;-70
2021/11/03 07:16:22;;;;;;;0.75;0.40;;;9.70;84.30;;;;;;5089356;28;20054;-70
2021/11/03 07:18:48;;;;;;;1.25;0.50;;;9.70;84.20;;;;;;5084628;28;20036;-68
2021/11/03 07:21:14;;;;;;;0.80;0.50;;;9.70;84.30;;;;;;5089219;28;20031;-69
2021/11/03 07:23:40;;;;;;;1.67;0.60;;;9.80;85.00;;;;;;5088171;28;20024;-69
2021/11/03 07:26:06;;;;;;;0.85;0.45;;;10.20;85.80;;;;;;5088295;28;20073;-68
2021/11/03 07:28:33;;;;;;;1.30;0.80;;;10.50;86.00;;;;;;5088731;28;20029;-69
2021/11/03 07:30:58;;;;;;;1.40;0.55;;;10.90;85.30;;;;;;5089160;28;20449;-68
2021/11/03 07:33:24;;;;;;;1.00;0.40;;;11.30;84.70;;;;;;5068194;28;20074;-68
2021/11/03 07:35:50;;;;;;;1.48;0.63;;;11.70;84.20;;;;;;5071019;28;20028;-69
2021/11/03 07:38:16;;;;;;;1.10;0.57;;;12.10;83.20;;;;;;5087585;28;20036;-69
2021/11/03 07:40:45;;;;;;;2.47;0.60;;;12.40;82.60;;;;;;5084040;28;20077;-68
2021/11/03 07:43:14;;;;;;;1.33;0.70;;;12.70;80.90;;;;;;5088803;28;20520;-69
2021/11/03 07:45:41;;;;;;;0.70;0.52;;;12.90;80.40;;;;;;5088618;28;20024;-69
2021/11/03 07:48:08;;;;;;;1.58;0.63;;;13.10;81.20;;;;;;5090621;28;20461;-69
2021/11/03 07:50:38;;;;;;;1.63;0.60;;;13.20;79.50;;;;;;5091514;28;20111;-70
2021/11/03 07:53:05;;;;;;;1.83;0.70;;;13.00;77.00;;;;;;5071667;28;20496;-70
2021/11/03 07:55:31;;;;;;;2.15;0.80;;;12.60;76.80;;;;;;5092525;28;20077;-69
2021/11/03 07:57:57;;;;;;;1.13;0.60;;;12.60;78.20;;;;;;5090489;28;20028;-69
2021/11/03 08:00:26;;;;;;;3.50;0.90;;;12.70;79.50;;;;;;5092172;28;20156;-71
2021/11/03 08:02:52;;;;;;;3.28;0.82;;;12.90;78.50;;;;;;5092392;28;20039;-72
2021/11/03 08:05:18;;;;;;;1.25;0.70;;;12.60;76.70;;;;;;5091678;28;20439;-72
2021/11/03 08:07:44;;;;;;;2.97;0.70;;;12.50;78.00;;;;;;5092396;28;20078;-71
2021/11/03 08:10:15;;;;;;;2.67;0.68;;;12.70;78.60;;;;;;5093179;28;20024;-69
2021/11/03 08:12:42;;;;;;;1.35;0.50;;;13.00;78.10;;;;;;5091655;28;20028;-67
2021/11/03 08:15:10;;;;;;;1.30;0.70;;;13.50;80.00;;;;;;5088944;28;20032;-67
2021/11/03 08:17:37;;;;;;;2.38;0.85;;;13.50;76.00;;;;;;5091991;28;20492;-70
2021/11/03 08:20:05;;;;;;;2.08;0.70;;;13.10;75.00;;;;;;5091383;28;20028;-71
2021/11/03 08:22:33;;;;;;;1.27;0.60;;;12.90;75.80;;;;;;5091316;28;20481;-71
2021/11/03 08:24:59;;;;;;;2.50;0.55;;;13.00;77.50;;;;;;5092143;28;20506;-71
2021/11/03 08:27:24;;;;;;;1.98;0.65;;;13.50;79.40;;;;;;5090031;28;20078;-73
2021/11/03 08:29:52;;;;;;;2.78;0.70;;;14.00;78.30;;;;;;5091471;28;20032;-72
2021/11/03 08:32:27;;;;;;;2.53;0.70;;;14.70;78.30;;;;;;5092026;28;20496;-72
2021/11/03 08:34:54;;;;;;;0.70;0.57;;;15.60;79.20;;;;;;5090261;28;20044;-73
2021/11/03 08:37:25;;;;;;;2.20;0.82;;;17.20;76.80;;;;;;5092100;28;20016;-73
2021/11/03 08:39:54;;;;;;;1.42;0.63;;;18.80;74.80;;;;;;5085745;28;20063;-72
2021/11/03 08:42:21;;;;;;;2.65;0.70;;;19.90;68.90;;;;;;5089930;28;20048;-73
2021/11/03 08:44:48;;;;;;;2.08;0.68;;;20.80;64.10;;;;;;5086030;28;21443;-72
2021/11/03 08:47:14;;;;;;;1.17;0.50;;;21.20;63.30;;;;;;5086058;28;20178;-72
2021/11/03 08:49:40;;;;;;;1.63;0.50;;;21.60;60.20;;;;;;5072150;28;20515;-72
2021/11/03 08:52:06;;;;;;;1.48;0.50;;;21.50;57.30;;;;;;5063234;28;20043;-73
2021/11/03 08:54:34;;;;;;;1.88;0.40;;;21.90;58.80;;;;;;5083693;28;20103;-73
2021/11/03 08:57:00;;;;;;;1.15;0.50;;;21.00;56.90;;;;;;5084392;28;20129;-71
2021/11/03 08:59:27;;;;;;;1.90;0.50;;;21.50;60.70;;;;;;5080603;28;20028;-72
2021/11/03 09:01:53;;;;;;;1.13;0.50;;;22.00;57.70;;;;;;5088504;28;20016;-71
2021/11/03 09:04:19;;;;;;;3.05;0.43;;;21.00;52.00;;;;;;5067351;28;20028;-73
2021/11/03 09:06:45;;;;;;;1.17;0.50;;;20.30;56.30;;;;;;5078090;28;20081;-73
2021/11/03 09:09:10;;;;;;;2.60;0.68;;;20.10;54.50;;;;;;5080554;28;20051;-72
2021/11/03 09:11:36;;;;;;;1.65;0.57;;;18.90;55.10;;;;;;5080006;28;20032;-73
2021/11/03 09:14:02;;;;;;;0.98;0.50;;;18.90;59.30;;;;;;5088350;28;20149;-72
2021/11/03 09:16:28;;;;;;;1.08;0.50;;;18.30;57.50;;;;;;5092473;28;20100;-71
2021/11/03 09:18:54;;;;;;;1.00;0.60;;;17.50;58.10;;;;;;5089389;28;20032;-71
2021/11/03 09:21:22;;;;;;;1.35;0.40;;;16.80;59.90;;;;;;5083601;28;20489;-72
2021/11/03 09:23:48;;;;;;;1.15;0.50;;;16.50;61.30;;;;;;5089503;28;20024;-71
2021/11/03 09:26:15;;;;;;;0.93;0.40;;;16.10;62.00;;;;;;5089362;28;20024;-72
2021/11/03 09:28:41;;;;;;;1.13;0.50;;;15.90;62.80;;;;;;5086216;28;20078;-72
2021/11/03 09:31:08;;;;;;;1.65;0.52;;;16.30;66.80;;;;;;5090603;28;20020;-72
2021/11/03 09:33:36;;;;;;;1.10;0.52;;;16.80;64.40;;;;;;5083293;28;20055;-72
2021/11/03 09:36:04;;;;;;;1.05;0.50;;;16.50;62.20;;;;;;5088048;28;20028;-72
2021/11/03 09:38:32;;;;;;;1.08;0.47;;;16.20;63.30;;;;;;5089127;28;20027;-71
2021/11/03 09:41:05;;;;;;;0.55;0.30;;;16.00;63.40;;;;;;5084430;28;20044;-72
2021/11/03 09:43:34;;;;;;;1.15;0.50;;;15.80;64.10;;;;;;5090769;28;20044;-72
2021/11/03 09:46:22;;;;;;;0.85;0.30;;;15.60;64.20;;;;;;5086055;28;20024;-72
2021/11/03 09:48:54;;;;;;;1.02;0.30;;;15.30;65.40;;;;;;5088773;28;20119;-72
2021/11/03 09:51:25;;;;;;;2.70;0.90;;;15.30;65.70;;;;;;5064858;28;20467;-72
2021/11/03 09:53:54;;;;;;;0.80;0.50;;;15.30;65.70;;;;;;5088782;28;20071;-72
2021/11/03 09:56:35;;;;;;;0.80;0.47;;;15.50;67.40;;;;;;5089000;28;20119;-72
2021/11/03 09:59:07;;;;;;;1.55;0.60;;;16.80;68.30;;;;;;5078768;28;20028;-72
2021/11/03 10:01:46;;;;;;;1.35;0.32;;;19.10;65.70;;;;;;5090754;28;20039;-72
2021/11/03 10:04:24;;;;;;;0.40;0.25;;;20.00;57.80;;;;;;5079281;28;20032;-72
2021/11/03 10:06:59;;;;;;;1.27;0.40;;;19.60;57.00;;;;;;5077869;28;20058;-73
2021/11/03 10:09:25;;;;;;;1.35;0.40;;;19.50;55.40;;;;;;5080457;28;20500;-73
2021/11/03 10:11:54;;;;;;;1.95;0.40;;;19.90;57.30;;;;;;5087708;28;20039;-72
2021/11/03 10:14:22;;;;;;;0.70;0.50;;;20.30;53.60;;;;;;5086683;28;20484;-73
2021/11/03 10:17:36;;;;;;;1.00;0.50;;;20.40;54.40;;;;;;5088655;28;20030;-73
2021/11/03 10:20:19;;;;;;;0.85;0.60;;;22.20;55.30;;;;;;5069424;28;20056;-72
2021/11/03 10:22:45;;;;;;;1.75;0.70;;;23.30;49.80;;;;;;5088134;28;20650;-72
2021/11/03 10:25:12;;;;;;;1.00;0.60;;;24.10;45.90;;;;;;5089310;28;20107;-72
2021/11/03 10:27:45;;;;;;;1.38;0.60;;;24.70;43.90;;;;;;5069760;28;20192;-73
2021/11/03 10:30:32;;;;;;;2.67;0.70;;;25.60;46.10;;;;;;5083180;28;20040;-72
2021/11/03 10:33:16;;;;;;;1.25;0.70;;;26.40;44.40;;;;;;5079069;28;20388;-73
2021/11/03 10:35:57;;;;;;;1.50;0.80;;;27.30;41.90;;;;;;5087012;28;20024;-73
2021/11/03 10:38:26;;;;;;;1.35;0.60;;;28.00;41.00;;;;;;5074650;28;20493;-72
2021/11/03 10:41:01;;;;;;;3.20;0.80;;;28.60;36.10;;;;;;5072855;28;20035;-73
2021/11/03 10:43:42;;;;;;;1.08;0.60;;;28.70;34.00;;;;;;5057377;28;20037;-73
2021/11/03 10:46:29;;;;;;;5.18;0.70;;;28.70;35.60;;;;;;5085654;28;20024;-73
2021/11/03 10:49:11;;;;;;;1.08;0.70;;;28.50;33.60;;;;;;5075811;28;20040;-72
2021/11/03 10:51:39;;;;;;;1.60;0.80;;;28.50;33.90;;;;;;5071805;28;20127;-72
2021/11/03 10:54:17;;;;;;;1.65;0.80;;;28.60;33.90;;;;;;5057319;28;20430;-72
2021/11/03 10:56:49;;;;;;;2.38;0.95;;;28.90;32.90;;;;;;5085683;28;20039;-73
2021/11/03 10:59:17;;;;;;;5.15;0.82;;;29.20;34.00;;;;;;5072956;28;20032;-73
2021/11/03 11:01:47;;;;;;;0.73;0.43;;;29.90;31.00;;;;;;5055186;28;20085;-72
2021/11/03 11:04:27;;;;;;;0.60;0.50;;;30.00;31.10;;;;;;5074511;28;20035;-74
2021/11/03 11:06:55;;;;;;;1.45;0.73;;;29.70;29.90;;;;;;5074736;28;20036;-73
2021/11/03 11:09:21;;;;;;;0.60;0.60;;;29.60;31.10;;;;;;5075725;28;20040;-74
2021/11/03 11:11:49;;;;;;;0.75;0.50;;;29.40;29.60;;;;;;5085271;28;20020;-73
2021/11/03 11:14:21;;;;;;;1.70;0.80;;;29.70;30.30;;;;;;5072186;28;20047;-73
2021/11/03 11:17:00;;;;;;;1.97;0.80;;;29.90;29.50;;;;;;5054045;28;20029;-63
2021/11/03 11:19:41;;;;;;;0.93;0.50;;;30.60;30.80;;;;;;5078889;28;20258;-65
2021/11/03 11:22:32;;;;;;;1.30;0.70;;;30.60;29.60;;;;;;5085985;28;20081;-64
2021/11/03 11:25:12;;;;;;;1.00;0.55;;;29.90;28.80;;;;;;5088998;28;20051;-65
2021/11/03 11:27:56;;;;;;;5.30;0.70;;;29.40;28.30;;;;;;5081586;28;20116;-67
2021/11/03 11:30:28;;;;;;;0.98;0.63;;;29.60;29.50;;;;;;5079413;28;20028;-62
2021/11/03 11:33:12;;;;;;;0.70;0.63;;;29.80;30.60;;;;;;5079376;28;20021;-63
2021/11/03 11:36:16;;;;;;;0.65;0.50;;;30.60;30.00;;;;;;5078541;28;20078;-62
2021/11/03 11:39:04;;;;;;;1.98;1.00;;;29.90;28.80;;;;;;5079967;28;20031;-63
2021/11/03 11:41:48;;;;;;;1.77;0.82;;;29.90;31.50;;;;;;5077092;28;20096;-62
2021/11/03 11:44:44;;;;;;;1.17;0.60;;;29.70;28.90;;;;;;5076228;28;20582;-63
2021/11/03 11:47:17;;;;;;;2.28;0.50;;;30.30;29.50;;;;;;5079536;28;20040;-62
2021/11/03 11:49:45;;;;;;;1.48;0.40;;;30.50;27.60;;;;;;5086427;28;20044;-62
2021/11/03 11:52:34;;;;;;;1.23;0.38;;;28.10;26.30;;;;;;5084780;28;20052;-63
2021/11/03 11:55:12;;;;;;;0.90;0.40;;;25.80;29.40;;;;;;5085687;28;20107;-63
2021/11/03 11:58:07;;;;;;;1.95;0.57;;;24.90;32.80;;;;;;5083544;28;20086;-62
2021/11/03 12:00:36;;;;;;;2.22;0.60;;;23.50;33.50;;;;;;5084575;28;20492;-63
2021/11/03 12:03:07;;;;;;;2.53;0.60;;;22.10;36.20;;;;;;5083726;28;20016;-62
2021/11/03 12:05:49;;;;;;;1.73;0.63;;;21.00;38.70;;;;;;5078371;28;20055;-62
2021/11/03 12:08:26;;;;;;;1.73;0.70;;;20.20;40.70;;;;;;5076479;28;20119;-62
2021/11/03 12:10:54;;;;;;;1.15;0.60;;;19.50;42.30;;;;;;5090625;28;20071;-61
2021/11/03 12:13:22;;;;;;;1.95;0.50;;;19.10;44.00;;;;;;5088806;28;20063;-62
2021/11/03 12:15:51;;;;;;;1.95;0.68;;;18.70;44.80;;;;;;5080002;28;20074;-62
2021/11/03 12:18:18;;;;;;;1.65;0.80;;;18.60;46.90;;;;;;5078421;28;20501;-63
2021/11/03 12:21:10;;;;;;;1.13;0.50;;;18.80;46.20;;;;;;5081385;28;20566;-74
2021/11/03 12:23:45;;;;;;;2.00;0.50;;;19.10;47.90;;;;;;5090108;28;20027;-70
2021/11/03 12:26:26;;;;;;;1.17;0.50;;;19.90;47.00;;;;;;5092210;28;20481;-73
2021/11/03 12:29:16;;;;;;;1.70;0.60;;;20.40;46.10;;;;;;5078047;28;20123;-72
2021/11/03 12:31:42;;;;;;;1.48;0.60;;;20.70;43.80;;;;;;5085946;28;20034;-73
2021/11/03 12:34:07;;;;;;;0.80;0.40;;;20.40;42.90;;;;;;5063478;28;20037;-72
2021/11/03 12:36:58;;;;;;;1.08;0.40;;;20.10;42.90;;;;;;5080045;28;20484;-65
2021/11/03 12:39:29;;;;;;;0.68;0.40;;;19.60;43.60;;;;;;5081705;28;20029;-68
2021/11/03 12:42:18;;;;;;;1.63;0.50;;;19.10;44.00;;;;;;5079165;28;20032;-70
2021/11/03 12:44:47;;;;;;;0.95;0.50;;;18.60;44.40;;;;;;4989308;28;20046;-68
2021/11/03 12:47:33;;;;;;;1.85;0.60;;;18.20;46.00;;;;;;4985190;28;20046;-67
2021/11/03 12:50:13;;;;;;;1.48;0.50;;;17.90;46.40;;;;;;4986640;28;20061;-70
2021/11/03 12:52:46;;;;;;;2.20;0.40;;;17.60;47.10;;;;;;4980979;28;20046;-73
2021/11/03 12:55:26;;;;;;;;;;;17.30;48.30;;;;;;4992147;28;20042;-69
2021/11/03 12:57:53;;;;;;;0.70;0.30;;;17.10;47.80;;;;;;4981208;28;20506;-72
2021/11/03 13:00:24;;;;;;;0.98;0.28;;;16.80;49.10;;;;;;4979654;28;20642;-72
2021/11/03 13:02:58;;;;;;;1.60;0.40;;;16.50;50.00;;;;;;4980561;28;20026;-73
2021/11/03 13:05:33;;;;;;;1.85;0.30;;;16.30;50.80;;;;;;4978639;28;20043;-71